sensor_id;sensor_type;location;lat;lon;timestamp;temperature;humidity
1155;DHT22;566;48.414;9.118;2023-07-13T00:02:08;15.80;67.40
1155;DHT22;566;48.414;9.118;2023-07-13T00:04:34;15.70;67.30
1155;DHT22;566;48.414;9.118;2023-07-13T00:07:00;15.60;66.40
1155;DHT22;566;48.414;9.118;2023-07-13T00:09:25;15.60;65.90
1155;DHT22;566;48.414;9.118;2023-07-13T00:11:53;15.70;65.20
1155;DHT22;566;48.414;9.118;2023-07-13T00:14:26;15.70;65.30
1155;DHT22;566;48.414;9.118;2023-07-13T00:16:52;15.60;64.90
1155;DHT22;566;48.414;9.118;2023-07-13T00:19:18;15.60;64.70
1155;DHT22;566;48.414;9.118;2023-07-13T00:21:44;15.50;64.20
1155;DHT22;566;48.414;9.118;2023-07-13T00:24:15;15.50;64.30
1155;DHT22;566;48.414;9.118;2023-07-13T00:26:42;15.50;63.80
1155;DHT22;566;48.414;9.118;2023-07-13T00:29:11;15.60;63.00
1155;DHT22;566;48.414;9.118;2023-07-13T00:31:37;15.60;63.40
1155;DHT22;566;48.414;9.118;2023-07-13T00:34:03;15.60;63.60
1155;DHT22;566;48.414;9.118;2023-07-13T00:36:30;15.60;63.60
1155;DHT22;566;48.414;9.118;2023-07-13T00:38:56;15.60;63.80
1155;DHT22;566;48.414;9.118;2023-07-13T00:41:21;15.60;64.40
1155;DHT22;566;48.414;9.118;2023-07-13T00:43:47;15.50;65.50
1155;DHT22;566;48.414;9.118;2023-07-13T00:46:24;15.40;65.70
1155;DHT22;566;48.414;9.118;2023-07-13T00:48:50;15.30;67.60
1155;DHT22;566;48.414;9.118;2023-07-13T00:51:27;15.10;66.90
1155;DHT22;566;48.414;9.118;2023-07-13T00:53:56;15.20;66.10
1155;DHT22;566;48.414;9.118;2023-07-13T00:56:23;15.20;66.10
1155;DHT22;566;48.414;9.118;2023-07-13T00:58:49;15.20;65.90
1155;DHT22;566;48.414;9.118;2023-07-13T01:01:15;15.20;65.20
1155;DHT22;566;48.414;9.118;2023-07-13T01:03:41;15.20;65.60
1155;DHT22;566;48.414;9.118;2023-07-13T01:06:07;15.10;66.00
1155;DHT22;566;48.414;9.118;2023-07-13T01:08:33;15.10;66.80
1155;DHT22;566;48.414;9.118;2023-07-13T01:10:59;15.00;66.80
1155;DHT22;566;48.414;9.118;2023-07-13T01:13:25;15.00;66.70
1155;DHT22;566;48.414;9.118;2023-07-13T01:15:52;15.00;66.70
1155;DHT22;566;48.414;9.118;2023-07-13T01:18:23;14.90;67.50
1155;DHT22;566;48.414;9.118;2023-07-13T01:23:16;14.80;67.60
1155;DHT22;566;48.414;9.118;2023-07-13T01:25:42;14.80;67.10
1155;DHT22;566;48.414;9.118;2023-07-13T01:28:08;14.80;67.30
1155;DHT22;566;48.414;9.118;2023-07-13T01:30:36;14.70;67.00
1155;DHT22;566;48.414;9.118;2023-07-13T01:33:03;14.70;66.80
1155;DHT22;566;48.414;9.118;2023-07-13T01:35:29;14.60;66.90
1155;DHT22;566;48.414;9.118;2023-07-13T01:37:55;14.60;66.90
1155;DHT22;566;48.414;9.118;2023-07-13T01:40:22;14.50;66.50
1155;DHT22;566;48.414;9.118;2023-07-13T01:42:47;14.50;66.70
1155;DHT22;566;48.414;9.118;2023-07-13T01:45:13;14.50;66.90
1155;DHT22;566;48.414;9.118;2023-07-13T01:47:39;14.40;66.60
1155;DHT22;566;48.414;9.118;2023-07-13T01:50:04;14.40;66.70
1155;DHT22;566;48.414;9.118;2023-07-13T01:52:30;14.40;67.10
1155;DHT22;566;48.414;9.118;2023-07-13T01:54:56;14.30;67.80
1155;DHT22;566;48.414;9.118;2023-07-13T01:57:21;14.20;68.50
1155;DHT22;566;48.414;9.118;2023-07-13T01:59:47;14.10;68.40
1155;DHT22;566;48.414;9.118;2023-07-13T02:02:12;14.10;68.20
1155;DHT22;566;48.414;9.118;2023-07-13T02:04:38;14.10;68.50
1155;DHT22;566;48.414;9.118;2023-07-13T02:07:03;14.00;68.50
1155;DHT22;566;48.414;9.118;2023-07-13T02:09:29;14.00;68.20
1155;DHT22;566;48.414;9.118;2023-07-13T02:11:54;14.00;68.60
1155;DHT22;566;48.414;9.118;2023-07-13T02:14:20;13.90;69.00
1155;DHT22;566;48.414;9.118;2023-07-13T02:16:46;13.90;69.10
1155;DHT22;566;48.414;9.118;2023-07-13T02:19:11;13.90;69.10
1155;DHT22;566;48.414;9.118;2023-07-13T02:21:37;13.80;69.60
1155;DHT22;566;48.414;9.118;2023-07-13T02:24:02;13.80;69.20
1155;DHT22;566;48.414;9.118;2023-07-13T02:26:28;13.80;69.00
1155;DHT22;566;48.414;9.118;2023-07-13T02:28:56;13.80;68.70
1155;DHT22;566;48.414;9.118;2023-07-13T02:31:21;13.80;68.60
1155;DHT22;566;48.414;9.118;2023-07-13T02:33:47;13.80;68.50
1155;DHT22;566;48.414;9.118;2023-07-13T02:36:13;13.70;68.90
1155;DHT22;566;48.414;9.118;2023-07-13T02:38:41;13.70;69.40
1155;DHT22;566;48.414;9.118;2023-07-13T02:41:07;13.60;69.10
1155;DHT22;566;48.414;9.118;2023-07-13T02:43:34;13.60;69.70
1155;DHT22;566;48.414;9.118;2023-07-13T02:46:01;13.50;69.70
1155;DHT22;566;48.414;9.118;2023-07-13T02:48:32;13.40;69.50
1155;DHT22;566;48.414;9.118;2023-07-13T02:50:58;13.40;70.20
1155;DHT22;566;48.414;9.118;2023-07-13T02:53:24;13.30;69.90
1155;DHT22;566;48.414;9.118;2023-07-13T02:55:49;13.30;69.20
1155;DHT22;566;48.414;9.118;2023-07-13T02:58:15;13.30;69.00
1155;DHT22;566;48.414;9.118;2023-07-13T03:00:46;13.10;69.10
1155;DHT22;566;48.414;9.118;2023-07-13T03:03:15;13.10;68.40
1155;DHT22;566;48.414;9.118;2023-07-13T03:05:43;13.10;68.90
1155;DHT22;566;48.414;9.118;2023-07-13T03:08:10;13.10;68.50
1155;DHT22;566;48.414;9.118;2023-07-13T03:10:39;13.10;68.40
1155;DHT22;566;48.414;9.118;2023-07-13T03:13:07;13.00;68.90
1155;DHT22;566;48.414;9.118;2023-07-13T03:15:33;12.90;68.60
1155;DHT22;566;48.414;9.118;2023-07-13T03:17:58;12.80;69.00
1155;DHT22;566;48.414;9.118;2023-07-13T03:20:24;12.80;69.00
1155;DHT22;566;48.414;9.118;2023-07-13T03:22:50;12.80;67.40
1155;DHT22;566;48.414;9.118;2023-07-13T03:25:15;12.80;67.30
1155;DHT22;566;48.414;9.118;2023-07-13T03:27:41;12.80;67.30
1155;DHT22;566;48.414;9.118;2023-07-13T03:30:07;12.80;67.40
1155;DHT22;566;48.414;9.118;2023-07-13T03:32:33;12.80;67.70
1155;DHT22;566;48.414;9.118;2023-07-13T03:34:58;12.80;68.00
1155;DHT22;566;48.414;9.118;2023-07-13T03:37:24;12.80;68.10
1155;DHT22;566;48.414;9.118;2023-07-13T03:39:50;12.80;67.80
1155;DHT22;566;48.414;9.118;2023-07-13T03:42:16;12.80;68.30
1155;DHT22;566;48.414;9.118;2023-07-13T03:44:42;12.80;67.70
1155;DHT22;566;48.414;9.118;2023-07-13T03:47:07;12.90;68.00
1155;DHT22;566;48.414;9.118;2023-07-13T03:49:34;12.90;68.20
1155;DHT22;566;48.414;9.118;2023-07-13T03:52:00;12.90;68.60
1155;DHT22;566;48.414;9.118;2023-07-13T03:54:26;12.90;68.40
1155;DHT22;566;48.414;9.118;2023-07-13T03:56:52;12.90;67.50
1155;DHT22;566;48.414;9.118;2023-07-13T03:59:17;12.90;66.90
1155;DHT22;566;48.414;9.118;2023-07-13T04:01:44;13.00;67.00
1155;DHT22;566;48.414;9.118;2023-07-13T04:04:09;13.00;67.20
1155;DHT22;566;48.414;9.118;2023-07-13T04:06:35;13.00;67.20
1155;DHT22;566;48.414;9.118;2023-07-13T04:09:01;13.10;67.40
1155;DHT22;566;48.414;9.118;2023-07-13T04:11:30;13.20;67.40
1155;DHT22;566;48.414;9.118;2023-07-13T04:13:57;13.20;67.70
1155;DHT22;566;48.414;9.118;2023-07-13T04:16:23;13.30;68.60
1155;DHT22;566;48.414;9.118;2023-07-13T04:18:49;13.30;68.80
1155;DHT22;566;48.414;9.118;2023-07-13T04:21:16;13.30;68.60
1155;DHT22;566;48.414;9.118;2023-07-13T04:23:42;13.30;68.70
1155;DHT22;566;48.414;9.118;2023-07-13T04:26:08;13.40;68.70
1155;DHT22;566;48.414;9.118;2023-07-13T04:28:34;13.40;69.00
1155;DHT22;566;48.414;9.118;2023-07-13T04:31:00;13.40;69.20
1155;DHT22;566;48.414;9.118;2023-07-13T04:33:26;13.50;69.20
1155;DHT22;566;48.414;9.118;2023-07-13T04:35:53;13.50;69.00
1155;DHT22;566;48.414;9.118;2023-07-13T04:38:22;13.60;70.20
1155;DHT22;566;48.414;9.118;2023-07-13T04:40:49;13.60;70.80
1155;DHT22;566;48.414;9.118;2023-07-13T04:43:15;13.60;71.40
1155;DHT22;566;48.414;9.118;2023-07-13T04:45:41;13.60;72.10
1155;DHT22;566;48.414;9.118;2023-07-13T04:48:06;13.70;71.80
1155;DHT22;566;48.414;9.118;2023-07-13T04:50:32;13.80;72.30
1155;DHT22;566;48.414;9.118;2023-07-13T04:52:58;13.80;72.80
1155;DHT22;566;48.414;9.118;2023-07-13T04:55:24;13.90;73.50
1155;DHT22;566;48.414;9.118;2023-07-13T04:57:50;13.90;73.50
1155;DHT22;566;48.414;9.118;2023-07-13T05:00:16;14.00;73.80
1155;DHT22;566;48.414;9.118;2023-07-13T05:02:44;14.10;74.20
1155;DHT22;566;48.414;9.118;2023-07-13T05:05:09;14.20;74.90
1155;DHT22;566;48.414;9.118;2023-07-13T05:07:35;14.30;77.20
1155;DHT22;566;48.414;9.118;2023-07-13T05:10:01;14.30;77.60
1155;DHT22;566;48.414;9.118;2023-07-13T05:12:27;14.40;77.20
1155;DHT22;566;48.414;9.118;2023-07-13T05:14:52;14.50;78.50
1155;DHT22;566;48.414;9.118;2023-07-13T05:17:18;14.60;79.60
1155;DHT22;566;48.414;9.118;2023-07-13T05:19:44;14.60;81.80
1155;DHT22;566;48.414;9.118;2023-07-13T05:22:09;14.60;81.60
1155;DHT22;566;48.414;9.118;2023-07-13T05:24:38;14.70;82.80
1155;DHT22;566;48.414;9.118;2023-07-13T05:27:04;14.90;82.70
1155;DHT22;566;48.414;9.118;2023-07-13T05:29:30;15.10;83.50
1155;DHT22;566;48.414;9.118;2023-07-13T05:31:55;15.30;86.00
1155;DHT22;566;48.414;9.118;2023-07-13T05:34:21;15.40;88.30
1155;DHT22;566;48.414;9.118;2023-07-13T05:36:47;15.40;89.50
1155;DHT22;566;48.414;9.118;2023-07-13T05:39:13;15.30;89.80
1155;DHT22;566;48.414;9.118;2023-07-13T05:41:39;15.40;89.20
1155;DHT22;566;48.414;9.118;2023-07-13T05:44:04;15.40;89.00
1155;DHT22;566;48.414;9.118;2023-07-13T05:46:30;15.50;90.10
1155;DHT22;566;48.414;9.118;2023-07-13T05:48:56;15.70;90.90
1155;DHT22;566;48.414;9.118;2023-07-13T05:51:22;15.90;91.00
1155;DHT22;566;48.414;9.118;2023-07-13T05:53:47;16.20;92.50
1155;DHT22;566;48.414;9.118;2023-07-13T05:56:13;16.40;93.80
1155;DHT22;566;48.414;9.118;2023-07-13T05:58:38;16.70;95.60
1155;DHT22;566;48.414;9.118;2023-07-13T06:01:07;17.00;95.70
1155;DHT22;566;48.414;9.118;2023-07-13T06:03:34;17.50;98.00
1155;DHT22;566;48.414;9.118;2023-07-13T06:05:59;18.10;98.00
1155;DHT22;566;48.414;9.118;2023-07-13T06:08:26;18.50;97.00
1155;DHT22;566;48.414;9.118;2023-07-13T06:10:51;18.90;95.10
1155;DHT22;566;48.414;9.118;2023-07-13T06:13:17;19.20;93.80
1155;DHT22;566;48.414;9.118;2023-07-13T06:15:50;19.30;92.70
1155;DHT22;566;48.414;9.118;2023-07-13T06:18:15;19.20;93.40
1155;DHT22;566;48.414;9.118;2023-07-13T06:20:41;19.30;92.80
1155;DHT22;566;48.414;9.118;2023-07-13T06:23:06;19.00;92.60
1155;DHT22;566;48.414;9.118;2023-07-13T06:25:32;18.90;92.50
1155;DHT22;566;48.414;9.118;2023-07-13T06:28:00;18.50;92.00
1155;DHT22;566;48.414;9.118;2023-07-13T06:30:26;18.30;93.40
1155;DHT22;566;48.414;9.118;2023-07-13T06:32:52;18.30;92.20
1155;DHT22;566;48.414;9.118;2023-07-13T06:35:18;18.30;93.30
1155;DHT22;566;48.414;9.118;2023-07-13T06:37:43;18.20;94.10
1155;DHT22;566;48.414;9.118;2023-07-13T06:40:11;18.00;93.70
1155;DHT22;566;48.414;9.118;2023-07-13T06:42:37;18.00;94.60
1155;DHT22;566;48.414;9.118;2023-07-13T06:45:04;18.00;94.50
1155;DHT22;566;48.414;9.118;2023-07-13T06:47:30;17.80;90.60
1155;DHT22;566;48.414;9.118;2023-07-13T06:49:55;17.70;92.00
1155;DHT22;566;48.414;9.118;2023-07-13T06:52:21;17.90;92.20
1155;DHT22;566;48.414;9.118;2023-07-13T06:54:46;18.10;91.40
1155;DHT22;566;48.414;9.118;2023-07-13T06:57:12;18.40;90.10
1155;DHT22;566;48.414;9.118;2023-07-13T06:59:37;18.60;89.00
1155;DHT22;566;48.414;9.118;2023-07-13T07:02:03;18.70;89.60
1155;DHT22;566;48.414;9.118;2023-07-13T07:04:29;18.60;88.30
1155;DHT22;566;48.414;9.118;2023-07-13T07:06:54;18.60;89.80
1155;DHT22;566;48.414;9.118;2023-07-13T07:09:20;18.60;89.60
1155;DHT22;566;48.414;9.118;2023-07-13T07:11:45;18.70;88.70
1155;DHT22;566;48.414;9.118;2023-07-13T07:14:11;19.00;87.00
1155;DHT22;566;48.414;9.118;2023-07-13T07:16:36;19.30;85.70
1155;DHT22;566;48.414;9.118;2023-07-13T07:19:02;19.40;85.80
1155;DHT22;566;48.414;9.118;2023-07-13T07:21:27;19.50;86.30
1155;DHT22;566;48.414;9.118;2023-07-13T07:23:53;19.60;85.30
1155;DHT22;566;48.414;9.118;2023-07-13T07:26:19;19.80;83.30
1155;DHT22;566;48.414;9.118;2023-07-13T07:28:48;20.00;83.30
1155;DHT22;566;48.414;9.118;2023-07-13T07:31:13;20.20;83.70
1155;DHT22;566;48.414;9.118;2023-07-13T07:33:39;20.30;83.50
1155;DHT22;566;48.414;9.118;2023-07-13T07:36:05;20.40;83.60
1155;DHT22;566;48.414;9.118;2023-07-13T07:38:30;20.30;83.00
1155;DHT22;566;48.414;9.118;2023-07-13T07:40:56;20.10;82.20
1155;DHT22;566;48.414;9.118;2023-07-13T07:43:21;20.40;82.30
1155;DHT22;566;48.414;9.118;2023-07-13T07:45:47;20.90;81.80
1155;DHT22;566;48.414;9.118;2023-07-13T07:48:13;21.60;78.00
1155;DHT22;566;48.414;9.118;2023-07-13T07:50:38;21.50;78.10
1155;DHT22;566;48.414;9.118;2023-07-13T07:53:08;21.60;79.30
1155;DHT22;566;48.414;9.118;2023-07-13T07:55:35;21.70;78.00
1155;DHT22;566;48.414;9.118;2023-07-13T07:58:01;21.80;75.40
1155;DHT22;566;48.414;9.118;2023-07-13T08:00:26;21.90;75.20
1155;DHT22;566;48.414;9.118;2023-07-13T08:02:54;22.00;76.70
1155;DHT22;566;48.414;9.118;2023-07-13T08:05:20;21.60;76.90
1155;DHT22;566;48.414;9.118;2023-07-13T08:07:45;21.30;76.60
1155;DHT22;566;48.414;9.118;2023-07-13T08:10:11;21.30;76.90
1155;DHT22;566;48.414;9.118;2023-07-13T08:12:38;21.10;76.20
1155;DHT22;566;48.414;9.118;2023-07-13T08:15:05;21.30;76.60
1155;DHT22;566;48.414;9.118;2023-07-13T08:17:31;22.10;74.20
1155;DHT22;566;48.414;9.118;2023-07-13T08:19:56;23.40;70.80
1155;DHT22;566;48.414;9.118;2023-07-13T08:22:22;24.20;68.00
1155;DHT22;566;48.414;9.118;2023-07-13T08:24:48;25.20;67.20
1155;DHT22;566;48.414;9.118;2023-07-13T08:27:20;25.50;65.10
1155;DHT22;566;48.414;9.118;2023-07-13T08:29:47;26.00;65.50
1155;DHT22;566;48.414;9.118;2023-07-13T08:32:13;27.00;64.90
1155;DHT22;566;48.414;9.118;2023-07-13T08:34:39;27.60;60.70
1155;DHT22;566;48.414;9.118;2023-07-13T08:37:05;27.50;61.90
1155;DHT22;566;48.414;9.118;2023-07-13T08:39:31;27.40;60.70
1155;DHT22;566;48.414;9.118;2023-07-13T08:42:20;27.40;61.10
1155;DHT22;566;48.414;9.118;2023-07-13T08:45:14;27.90;61.60
1155;DHT22;566;48.414;9.118;2023-07-13T08:47:44;27.50;59.80
1155;DHT22;566;48.414;9.118;2023-07-13T08:50:14;27.70;59.60
1155;DHT22;566;48.414;9.118;2023-07-13T08:52:42;28.20;60.70
1155;DHT22;566;48.414;9.118;2023-07-13T08:55:20;28.70;59.00
1155;DHT22;566;48.414;9.118;2023-07-13T08:57:50;28.60;58.20
1155;DHT22;566;48.414;9.118;2023-07-13T09:00:18;28.50;57.80
1155;DHT22;566;48.414;9.118;2023-07-13T09:10:49;27.90;58.20
1155;DHT22;566;48.414;9.118;2023-07-13T09:14:22;27.70;56.30
1155;DHT22;566;48.414;9.118;2023-07-13T09:16:51;27.90;57.40
1155;DHT22;566;48.414;9.118;2023-07-13T09:19:23;26.80;59.20
1155;DHT22;566;48.414;9.118;2023-07-13T09:21:52;25.60;61.60
1155;DHT22;566;48.414;9.118;2023-07-13T09:24:41;25.50;61.70
1155;DHT22;566;48.414;9.118;2023-07-13T09:27:15;26.70;61.60
1155;DHT22;566;48.414;9.118;2023-07-13T09:29:52;27.00;59.40
1155;DHT22;566;48.414;9.118;2023-07-13T09:32:21;28.20;57.90
1155;DHT22;566;48.414;9.118;2023-07-13T09:34:55;29.00;57.30
1155;DHT22;566;48.414;9.118;2023-07-13T09:37:30;28.90;56.60
1155;DHT22;566;48.414;9.118;2023-07-13T09:39:58;28.50;56.10
1155;DHT22;566;48.414;9.118;2023-07-13T09:42:25;29.00;56.60
1155;DHT22;566;48.414;9.118;2023-07-13T09:44:54;28.90;56.00
1155;DHT22;566;48.414;9.118;2023-07-13T09:47:21;28.10;56.60
1155;DHT22;566;48.414;9.118;2023-07-13T09:49:58;28.20;55.70
1155;DHT22;566;48.414;9.118;2023-07-13T09:52:25;28.10;56.60
1155;DHT22;566;48.414;9.118;2023-07-13T09:54:53;27.60;58.20
1155;DHT22;566;48.414;9.118;2023-07-13T09:57:26;27.70;57.10
1155;DHT22;566;48.414;9.118;2023-07-13T09:59:53;28.00;59.00
1155;DHT22;566;48.414;9.118;2023-07-13T10:02:31;28.10;58.70
1155;DHT22;566;48.414;9.118;2023-07-13T10:05:14;28.70;56.00
1155;DHT22;566;48.414;9.118;2023-07-13T10:07:44;28.40;55.70
1155;DHT22;566;48.414;9.118;2023-07-13T10:10:20;28.10;56.60
1155;DHT22;566;48.414;9.118;2023-07-13T10:12:47;27.70;56.50
1155;DHT22;566;48.414;9.118;2023-07-13T10:15:16;26.70;57.80
1155;DHT22;566;48.414;9.118;2023-07-13T10:17:44;26.80;58.20
1155;DHT22;566;48.414;9.118;2023-07-13T10:20:10;27.20;57.00
1155;DHT22;566;48.414;9.118;2023-07-13T10:23:08;27.00;57.40
1155;DHT22;566;48.414;9.118;2023-07-13T10:25:39;27.60;57.40
1155;DHT22;566;48.414;9.118;2023-07-13T10:28:20;28.10;55.30
1155;DHT22;566;48.414;9.118;2023-07-13T10:30:48;28.20;55.70
1155;DHT22;566;48.414;9.118;2023-07-13T10:33:15;28.20;52.80
1155;DHT22;566;48.414;9.118;2023-07-13T10:35:43;27.90;55.00
1155;DHT22;566;48.414;9.118;2023-07-13T10:38:15;27.10;55.90
1155;DHT22;566;48.414;9.118;2023-07-13T10:43:17;26.30;59.20
1155;DHT22;566;48.414;9.118;2023-07-13T10:45:45;27.10;59.20
1155;DHT22;566;48.414;9.118;2023-07-13T10:48:14;27.10;57.00
1155;DHT22;566;48.414;9.118;2023-07-13T10:50:43;26.60;58.00
1155;DHT22;566;48.414;9.118;2023-07-13T10:53:28;26.20;58.30
1155;DHT22;566;48.414;9.118;2023-07-13T10:58:41;26.70;58.20
1155;DHT22;566;48.414;9.118;2023-07-13T11:01:16;27.30;57.30
1155;DHT22;566;48.414;9.118;2023-07-13T11:03:50;27.30;56.80
1155;DHT22;566;48.414;9.118;2023-07-13T11:08:55;27.70;55.80
1155;DHT22;566;48.414;9.118;2023-07-13T11:18:48;29.50;53.50
1155;DHT22;566;48.414;9.118;2023-07-13T11:21:20;29.40;55.20
1155;DHT22;566;48.414;9.118;2023-07-13T11:24:03;28.80;52.90
1155;DHT22;566;48.414;9.118;2023-07-13T11:29:33;29.20;54.10
1155;DHT22;566;48.414;9.118;2023-07-13T11:32:10;29.40;54.90
1155;DHT22;566;48.414;9.118;2023-07-13T11:34:45;29.40;53.20
1155;DHT22;566;48.414;9.118;2023-07-13T11:37:12;29.30;54.10
1155;DHT22;566;48.414;9.118;2023-07-13T11:39:42;28.60;54.10
1155;DHT22;566;48.414;9.118;2023-07-13T11:42:15;28.60;53.80
1155;DHT22;566;48.414;9.118;2023-07-13T11:44:47;29.20;56.90
1155;DHT22;566;48.414;9.118;2023-07-13T11:47:21;29.50;53.60
1155;DHT22;566;48.414;9.118;2023-07-13T11:49:53;28.30;54.50
1155;DHT22;566;48.414;9.118;2023-07-13T11:52:48;27.10;57.30
1155;DHT22;566;48.414;9.118;2023-07-13T11:55:17;26.70;57.70
1155;DHT22;566;48.414;9.118;2023-07-13T11:57:59;27.90;57.00
1155;DHT22;566;48.414;9.118;2023-07-13T12:00:28;28.50;55.80
1155;DHT22;566;48.414;9.118;2023-07-13T12:02:57;28.00;55.10
1155;DHT22;566;48.414;9.118;2023-07-13T12:05:26;27.80;58.20
1155;DHT22;566;48.414;9.118;2023-07-13T12:07:52;27.80;55.60
1155;DHT22;566;48.414;9.118;2023-07-13T12:12:53;27.90;57.50
1155;DHT22;566;48.414;9.118;2023-07-13T12:15:20;28.80;56.10
1155;DHT22;566;48.414;9.118;2023-07-13T12:17:48;29.20;54.00
1155;DHT22;566;48.414;9.118;2023-07-13T12:20:35;27.90;54.10
1155;DHT22;566;48.414;9.118;2023-07-13T12:23:05;27.40;55.10
1155;DHT22;566;48.414;9.118;2023-07-13T12:25:31;27.80;53.50
1155;DHT22;566;48.414;9.118;2023-07-13T12:27:58;26.80;54.50
1155;DHT22;566;48.414;9.118;2023-07-13T12:30:30;26.00;57.00
1155;DHT22;566;48.414;9.118;2023-07-13T12:33:11;25.50;56.40
1155;DHT22;566;48.414;9.118;2023-07-13T12:35:50;25.80;57.60
1155;DHT22;566;48.414;9.118;2023-07-13T12:38:17;27.10;55.00
1155;DHT22;566;48.414;9.118;2023-07-13T12:40:48;28.60;53.70
1155;DHT22;566;48.414;9.118;2023-07-13T12:43:15;29.40;52.70
1155;DHT22;566;48.414;9.118;2023-07-13T12:46:03;30.00;51.80
1155;DHT22;566;48.414;9.118;2023-07-13T12:48:41;31.20;51.40
1155;DHT22;566;48.414;9.118;2023-07-13T12:51:10;31.00;50.40
1155;DHT22;566;48.414;9.118;2023-07-13T12:53:41;30.30;50.40
1155;DHT22;566;48.414;9.118;2023-07-13T12:56:21;29.30;52.90
1155;DHT22;566;48.414;9.118;2023-07-13T12:58:48;29.60;50.30
1155;DHT22;566;48.414;9.118;2023-07-13T13:01:21;30.90;48.80
1155;DHT22;566;48.414;9.118;2023-07-13T13:03:50;31.50;49.40
1155;DHT22;566;48.414;9.118;2023-07-13T13:06:28;31.80;47.80
1155;DHT22;566;48.414;9.118;2023-07-13T13:08:55;32.00;48.70
1155;DHT22;566;48.414;9.118;2023-07-13T13:11:22;30.60;47.70
1155;DHT22;566;48.414;9.118;2023-07-13T13:13:49;28.70;50.70
1155;DHT22;566;48.414;9.118;2023-07-13T13:16:23;27.20;52.40
1155;DHT22;566;48.414;9.118;2023-07-13T13:18:59;26.90;53.40
1155;DHT22;566;48.414;9.118;2023-07-13T13:21:25;27.70;54.10
1155;DHT22;566;48.414;9.118;2023-07-13T13:23:51;28.20;54.00
1155;DHT22;566;48.414;9.118;2023-07-13T13:26:18;28.50;52.60
1155;DHT22;566;48.414;9.118;2023-07-13T13:28:45;28.00;51.70
1155;DHT22;566;48.414;9.118;2023-07-13T13:31:13;27.40;53.90
1155;DHT22;566;48.414;9.118;2023-07-13T13:33:44;27.40;54.60
1155;DHT22;566;48.414;9.118;2023-07-13T13:36:18;27.80;53.00
1155;DHT22;566;48.414;9.118;2023-07-13T13:38:46;28.20;52.90
1155;DHT22;566;48.414;9.118;2023-07-13T13:41:13;28.40;52.50
1155;DHT22;566;48.414;9.118;2023-07-13T13:43:41;28.30;53.10
1155;DHT22;566;48.414;9.118;2023-07-13T13:46:17;28.50;53.30
1155;DHT22;566;48.414;9.118;2023-07-13T13:48:43;29.60;51.50
1155;DHT22;566;48.414;9.118;2023-07-13T13:51:15;29.70;51.10
1155;DHT22;566;48.414;9.118;2023-07-13T13:53:41;30.40;48.90
1155;DHT22;566;48.414;9.118;2023-07-13T13:56:08;29.20;50.40
1155;DHT22;566;48.414;9.118;2023-07-13T13:58:33;28.50;51.60
1155;DHT22;566;48.414;9.118;2023-07-13T14:00:59;28.90;51.20
1155;DHT22;566;48.414;9.118;2023-07-13T14:03:25;29.50;50.70
1155;DHT22;566;48.414;9.118;2023-07-13T14:05:53;30.60;50.00
1155;DHT22;566;48.414;9.118;2023-07-13T14:08:20;31.00;49.00
1155;DHT22;566;48.414;9.118;2023-07-13T14:10:49;29.40;49.60
1155;DHT22;566;48.414;9.118;2023-07-13T14:13:21;29.10;52.00
1155;DHT22;566;48.414;9.118;2023-07-13T14:15:49;28.10;51.80
1155;DHT22;566;48.414;9.118;2023-07-13T14:18:15;26.80;54.30
1155;DHT22;566;48.414;9.118;2023-07-13T14:20:47;26.30;54.20
1155;DHT22;566;48.414;9.118;2023-07-13T14:23:13;26.20;55.30
1155;DHT22;566;48.414;9.118;2023-07-13T14:25:39;27.10;54.40
1155;DHT22;566;48.414;9.118;2023-07-13T14:28:19;28.90;51.80
1155;DHT22;566;48.414;9.118;2023-07-13T14:30:45;30.80;49.90
1155;DHT22;566;48.414;9.118;2023-07-13T14:33:12;30.70;47.60
1155;DHT22;566;48.414;9.118;2023-07-13T14:35:38;28.50;50.20
1155;DHT22;566;48.414;9.118;2023-07-13T14:38:04;27.60;51.70
1155;DHT22;566;48.414;9.118;2023-07-13T14:40:31;28.10;52.50
1155;DHT22;566;48.414;9.118;2023-07-13T14:42:58;29.60;49.90
1155;DHT22;566;48.414;9.118;2023-07-13T14:45:24;30.70;48.70
1155;DHT22;566;48.414;9.118;2023-07-13T14:47:50;30.00;48.80
1155;DHT22;566;48.414;9.118;2023-07-13T14:50:24;28.30;50.50
1155;DHT22;566;48.414;9.118;2023-07-13T14:52:54;27.30;52.80
1155;DHT22;566;48.414;9.118;2023-07-13T14:55:19;26.70;53.60
1155;DHT22;566;48.414;9.118;2023-07-13T14:57:45;26.50;54.00
1155;DHT22;566;48.414;9.118;2023-07-13T15:00:21;26.40;54.40
1155;DHT22;566;48.414;9.118;2023-07-13T15:02:51;27.50;53.30
1155;DHT22;566;48.414;9.118;2023-07-13T15:05:22;28.70;50.80
1155;DHT22;566;48.414;9.118;2023-07-13T15:07:53;29.20;49.70
1155;DHT22;566;48.414;9.118;2023-07-13T15:10:21;27.70;50.70
1155;DHT22;566;48.414;9.118;2023-07-13T15:12:47;26.80;53.40
1155;DHT22;566;48.414;9.118;2023-07-13T15:15:13;27.00;53.40
1155;DHT22;566;48.414;9.118;2023-07-13T15:17:44;26.80;53.70
1155;DHT22;566;48.414;9.118;2023-07-13T15:22:48;29.00;50.90
1155;DHT22;566;48.414;9.118;2023-07-13T15:25:18;29.00;50.40
1155;DHT22;566;48.414;9.118;2023-07-13T15:27:44;27.50;52.30
1155;DHT22;566;48.414;9.118;2023-07-13T15:30:10;26.60;53.60
1155;DHT22;566;48.414;9.118;2023-07-13T15:32:36;26.00;54.70
1155;DHT22;566;48.414;9.118;2023-07-13T15:35:02;26.30;56.30
1155;DHT22;566;48.414;9.118;2023-07-13T15:37:29;26.80;55.10
1155;DHT22;566;48.414;9.118;2023-07-13T15:39:54;27.70;53.60
1155;DHT22;566;48.414;9.118;2023-07-13T15:42:23;29.30;52.00
1155;DHT22;566;48.414;9.118;2023-07-13T15:44:49;29.90;50.70
1155;DHT22;566;48.414;9.118;2023-07-13T15:47:15;30.00;50.50
1155;DHT22;566;48.414;9.118;2023-07-13T15:49:41;30.20;50.10
1155;DHT22;566;48.414;9.118;2023-07-13T15:52:18;30.30;48.90
1155;DHT22;566;48.414;9.118;2023-07-13T15:54:46;29.70;49.40
1155;DHT22;566;48.414;9.118;2023-07-13T15:57:12;29.10;50.30
1155;DHT22;566;48.414;9.118;2023-07-13T15:59:39;28.40;50.30
1155;DHT22;566;48.414;9.118;2023-07-13T16:02:12;27.80;51.80
1155;DHT22;566;48.414;9.118;2023-07-13T16:04:38;26.60;54.50
1155;DHT22;566;48.414;9.118;2023-07-13T16:07:04;26.70;55.70
1155;DHT22;566;48.414;9.118;2023-07-13T16:09:29;27.30;55.00
1155;DHT22;566;48.414;9.118;2023-07-13T16:11:55;28.20;53.60
1155;DHT22;566;48.414;9.118;2023-07-13T16:14:22;28.90;53.70
1155;DHT22;566;48.414;9.118;2023-07-13T16:16:52;29.60;53.90
1155;DHT22;566;48.414;9.118;2023-07-13T16:19:20;30.30;51.50
1155;DHT22;566;48.414;9.118;2023-07-13T16:21:54;30.30;51.70
1155;DHT22;566;48.414;9.118;2023-07-13T16:24:21;30.40;51.60
1155;DHT22;566;48.414;9.118;2023-07-13T16:26:48;30.70;51.70
1155;DHT22;566;48.414;9.118;2023-07-13T16:31:40;28.50;53.70
1155;DHT22;566;48.414;9.118;2023-07-13T16:34:06;28.80;53.20
1155;DHT22;566;48.414;9.118;2023-07-13T16:36:35;28.00;52.80
1155;DHT22;566;48.414;9.118;2023-07-13T16:39:01;27.20;55.40
1155;DHT22;566;48.414;9.118;2023-07-13T16:41:30;26.40;56.40
1155;DHT22;566;48.414;9.118;2023-07-13T16:43:55;26.50;57.20
1155;DHT22;566;48.414;9.118;2023-07-13T16:46:22;27.40;55.70
1155;DHT22;566;48.414;9.118;2023-07-13T16:48:49;27.80;55.30
1155;DHT22;566;48.414;9.118;2023-07-13T16:51:15;27.60;55.80
1155;DHT22;566;48.414;9.118;2023-07-13T16:53:40;27.20;56.00
1155;DHT22;566;48.414;9.118;2023-07-13T16:56:14;26.90;57.10
1155;DHT22;566;48.414;9.118;2023-07-13T16:58:40;26.80;56.80
1155;DHT22;566;48.414;9.118;2023-07-13T17:01:06;26.80;57.30